sensor_id;sensor_type;location;lat;lon;timestamp;temperature;humidity
13223;DHT22;6676;45.192;5.722;2023-02-22T00:05:05;8.50;99.90
13223;DHT22;6676;45.192;5.722;2023-02-22T00:08:03;8.40;99.90
13223;DHT22;6676;45.192;5.722;2023-02-22T00:13:40;8.20;99.90
13223;DHT22;6676;45.192;5.722;2023-02-22T00:16:34;8.40;99.90
13223;DHT22;6676;45.192;5.722;2023-02-22T00:19:26;8.40;99.90
13223;DHT22;6676;45.192;5.722;2023-02-22T00:25:00;8.30;99.90
13223;DHT22;6676;45.192;5.722;2023-02-22T00:27:52;8.30;99.90
13223;DHT22;6676;45.192;5.722;2023-02-22T00:30:46;8.10;99.90
13223;DHT22;6676;45.192;5.722;2023-02-22T00:33:40;8.10;99.90
13223;DHT22;6676;45.192;5.722;2023-02-22T00:36:31;8.00;99.90
13223;DHT22;6676;45.192;5.722;2023-02-22T00:39:23;7.90;99.90
13223;DHT22;6676;45.192;5.722;2023-02-22T00:42:14;7.80;99.90
13223;DHT22;6676;45.192;5.722;2023-02-22T00:45:07;7.80;99.90
13223;DHT22;6676;45.192;5.722;2023-02-22T00:48:00;7.80;99.90
13223;DHT22;6676;45.192;5.722;2023-02-22T00:50:53;7.80;99.90
13223;DHT22;6676;45.192;5.722;2023-02-22T00:56:24;7.70;99.90
13223;DHT22;6676;45.192;5.722;2023-02-22T01:01:55;7.70;99.90
13223;DHT22;6676;45.192;5.722;2023-02-22T01:04:48;7.70;99.90
13223;DHT22;6676;45.192;5.722;2023-02-22T01:07:39;7.70;99.90
13223;DHT22;6676;45.192;5.722;2023-02-22T01:13:14;7.60;99.90
13223;DHT22;6676;45.192;5.722;2023-02-22T01:16:08;7.60;99.90
13223;DHT22;6676;45.192;5.722;2023-02-22T01:18:59;7.60;99.90
13223;DHT22;6676;45.192;5.722;2023-02-22T01:21:51;7.70;99.90
13223;DHT22;6676;45.192;5.722;2023-02-22T01:24:43;7.70;99.90
13223;DHT22;6676;45.192;5.722;2023-02-22T01:27:35;7.80;99.90
13223;DHT22;6676;45.192;5.722;2023-02-22T01:33:09;7.80;99.90
13223;DHT22;6676;45.192;5.722;2023-02-22T01:36:02;7.80;99.90
13223;DHT22;6676;45.192;5.722;2023-02-22T01:38:57;7.80;99.90
13223;DHT22;6676;45.192;5.722;2023-02-22T01:41:49;7.80;99.90
13223;DHT22;6676;45.192;5.722;2023-02-22T01:44:42;7.80;99.90
13223;DHT22;6676;45.192;5.722;2023-02-22T01:47:34;7.80;99.90
13223;DHT22;6676;45.192;5.722;2023-02-22T01:50:27;7.70;99.90
13223;DHT22;6676;45.192;5.722;2023-02-22T01:53:22;7.60;99.90
13223;DHT22;6676;45.192;5.722;2023-02-22T01:56:15;7.50;99.90
13223;DHT22;6676;45.192;5.722;2023-02-22T02:01:47;7.40;99.90
13223;DHT22;6676;45.192;5.722;2023-02-22T02:04:40;7.30;99.90
13223;DHT22;6676;45.192;5.722;2023-02-22T02:10:15;7.20;99.90
13223;DHT22;6676;45.192;5.722;2023-02-22T02:13:07;7.20;99.90
13223;DHT22;6676;45.192;5.722;2023-02-22T02:15:59;7.20;99.90
13223;DHT22;6676;45.192;5.722;2023-02-22T02:21:44;7.20;99.90
13223;DHT22;6676;45.192;5.722;2023-02-22T02:34:22;7.20;99.90
13223;DHT22;6676;45.192;5.722;2023-02-22T02:37:18;7.20;99.90
13223;DHT22;6676;45.192;5.722;2023-02-22T02:43:13;7.20;99.90
13223;DHT22;6676;45.192;5.722;2023-02-22T02:51:35;7.30;99.90
13223;DHT22;6676;45.192;5.722;2023-02-22T02:54:27;7.30;99.90
13223;DHT22;6676;45.192;5.722;2023-02-22T02:57:19;7.20;99.90
13223;DHT22;6676;45.192;5.722;2023-02-22T03:03:05;7.20;99.90
13223;DHT22;6676;45.192;5.722;2023-02-22T03:06:26;7.40;99.90
13223;DHT22;6676;45.192;5.722;2023-02-22T03:09:25;7.40;99.90
13223;DHT22;6676;45.192;5.722;2023-02-22T03:15:06;7.30;99.90
13223;DHT22;6676;45.192;5.722;2023-02-22T03:20:47;7.20;99.90
13223;DHT22;6676;45.192;5.722;2023-02-22T03:26:25;7.20;99.90
13223;DHT22;6676;45.192;5.722;2023-02-22T03:29:20;7.20;99.90
13223;DHT22;6676;45.192;5.722;2023-02-22T03:32:16;7.10;99.90
13223;DHT22;6676;45.192;5.722;2023-02-22T03:35:11;7.00;99.90
13223;DHT22;6676;45.192;5.722;2023-02-22T03:40:51;6.90;99.90
13223;DHT22;6676;45.192;5.722;2023-02-22T03:46:28;6.90;99.90
13223;DHT22;6676;45.192;5.722;2023-02-22T03:49:26;6.90;99.90
13223;DHT22;6676;45.192;5.722;2023-02-22T03:52:25;6.90;99.90
13223;DHT22;6676;45.192;5.722;2023-02-22T03:55:18;7.00;99.90
13223;DHT22;6676;45.192;5.722;2023-02-22T03:58:11;7.00;99.90
13223;DHT22;6676;45.192;5.722;2023-02-22T04:01:04;6.90;99.90
13223;DHT22;6676;45.192;5.722;2023-02-22T04:03:57;6.90;99.90
13223;DHT22;6676;45.192;5.722;2023-02-22T04:06:49;7.00;99.90
13223;DHT22;6676;45.192;5.722;2023-02-22T04:12:20;7.10;99.90
13223;DHT22;6676;45.192;5.722;2023-02-22T04:15:15;7.10;99.90
13223;DHT22;6676;45.192;5.722;2023-02-22T04:18:07;7.10;99.90
13223;DHT22;6676;45.192;5.722;2023-02-22T04:20:58;7.20;99.90
13223;DHT22;6676;45.192;5.722;2023-02-22T04:26:30;7.20;99.90
13223;DHT22;6676;45.192;5.722;2023-02-22T04:29:23;7.20;99.90
13223;DHT22;6676;45.192;5.722;2023-02-22T04:32:15;7.30;99.90
13223;DHT22;6676;45.192;5.722;2023-02-22T04:37:46;7.40;99.90
13223;DHT22;6676;45.192;5.722;2023-02-22T04:40:38;7.30;99.90
13223;DHT22;6676;45.192;5.722;2023-02-22T04:46:14;7.20;99.90
13223;DHT22;6676;45.192;5.722;2023-02-22T04:51:50;7.10;99.90
13223;DHT22;6676;45.192;5.722;2023-02-22T04:57:34;7.10;99.90
13223;DHT22;6676;45.192;5.722;2023-02-22T05:00:29;7.10;99.90
13223;DHT22;6676;45.192;5.722;2023-02-22T05:03:21;7.00;99.90
13223;DHT22;6676;45.192;5.722;2023-02-22T05:06:13;7.00;99.90
13223;DHT22;6676;45.192;5.722;2023-02-22T05:11:48;7.10;99.90
13223;DHT22;6676;45.192;5.722;2023-02-22T05:14:46;7.10;99.90
13223;DHT22;6676;45.192;5.722;2023-02-22T05:17:37;7.00;99.90
13223;DHT22;6676;45.192;5.722;2023-02-22T05:20:31;7.10;99.90
13223;DHT22;6676;45.192;5.722;2023-02-22T05:26:02;7.00;99.90
13223;DHT22;6676;45.192;5.722;2023-02-22T05:28:55;7.00;99.90
13223;DHT22;6676;45.192;5.722;2023-02-22T05:34:27;6.90;99.90
13223;DHT22;6676;45.192;5.722;2023-02-22T05:37:19;7.00;99.90
13223;DHT22;6676;45.192;5.722;2023-02-22T05:42:57;6.90;99.90
13223;DHT22;6676;45.192;5.722;2023-02-22T05:45:49;6.90;99.90
13223;DHT22;6676;45.192;5.722;2023-02-22T05:51:22;6.80;99.90
13223;DHT22;6676;45.192;5.722;2023-02-22T05:56:55;6.80;99.90
13223;DHT22;6676;45.192;5.722;2023-02-22T06:02:28;6.60;99.90
13223;DHT22;6676;45.192;5.722;2023-02-22T06:05:20;6.60;99.90
13223;DHT22;6676;45.192;5.722;2023-02-22T06:11:00;6.70;99.90
13223;DHT22;6676;45.192;5.722;2023-02-22T06:13:52;6.70;99.90
13223;DHT22;6676;45.192;5.722;2023-02-22T06:16:43;6.70;99.90
13223;DHT22;6676;45.192;5.722;2023-02-22T06:19:35;6.80;99.90
13223;DHT22;6676;45.192;5.722;2023-02-22T06:22:27;6.80;99.90
13223;DHT22;6676;45.192;5.722;2023-02-22T06:25:20;6.70;99.90
13223;DHT22;6676;45.192;5.722;2023-02-22T06:30:51;6.80;99.90
13223;DHT22;6676;45.192;5.722;2023-02-22T06:33:43;6.80;99.90
13223;DHT22;6676;45.192;5.722;2023-02-22T06:36:34;6.90;99.90
13223;DHT22;6676;45.192;5.722;2023-02-22T06:42:23;6.90;99.90
13223;DHT22;6676;45.192;5.722;2023-02-22T06:45:24;7.20;99.90
13223;DHT22;6676;45.192;5.722;2023-02-22T06:48:16;7.10;99.90
13223;DHT22;6676;45.192;5.722;2023-02-22T06:51:09;7.10;99.90
13223;DHT22;6676;45.192;5.722;2023-02-22T06:56:43;7.10;99.90
13223;DHT22;6676;45.192;5.722;2023-02-22T06:59:34;7.10;99.90
13223;DHT22;6676;45.192;5.722;2023-02-22T07:02:26;7.10;99.90
13223;DHT22;6676;45.192;5.722;2023-02-22T07:05:19;7.10;99.90
13223;DHT22;6676;45.192;5.722;2023-02-22T07:08:11;7.10;99.90
13223;DHT22;6676;45.192;5.722;2023-02-22T07:11:04;7.10;99.90
13223;DHT22;6676;45.192;5.722;2023-02-22T07:13:55;7.20;99.90
13223;DHT22;6676;45.192;5.722;2023-02-22T07:16:46;7.30;99.90
13223;DHT22;6676;45.192;5.722;2023-02-22T07:22:16;7.30;99.90
13223;DHT22;6676;45.192;5.722;2023-02-22T07:25:09;7.30;99.90
13223;DHT22;6676;45.192;5.722;2023-02-22T07:30:42;7.40;99.90
13223;DHT22;6676;45.192;5.722;2023-02-22T07:36:11;7.40;99.90
13223;DHT22;6676;45.192;5.722;2023-02-22T07:39:05;7.40;99.90
13223;DHT22;6676;45.192;5.722;2023-02-22T07:41:58;7.40;99.90
13223;DHT22;6676;45.192;5.722;2023-02-22T07:47:30;7.60;99.90
13223;DHT22;6676;45.192;5.722;2023-02-22T07:50:23;7.50;99.90
13223;DHT22;6676;45.192;5.722;2023-02-22T07:53:17;7.60;99.90
13223;DHT22;6676;45.192;5.722;2023-02-22T07:56:08;7.70;99.90
13223;DHT22;6676;45.192;5.722;2023-02-22T08:01:45;7.80;99.90
13223;DHT22;6676;45.192;5.722;2023-02-22T08:04:38;7.90;99.90
13223;DHT22;6676;45.192;5.722;2023-02-22T08:10:12;8.20;99.90
13223;DHT22;6676;45.192;5.722;2023-02-22T08:13:05;8.20;99.90
13223;DHT22;6676;45.192;5.722;2023-02-22T08:18:37;8.20;99.90
13223;DHT22;6676;45.192;5.722;2023-02-22T08:21:29;8.10;99.90
13223;DHT22;6676;45.192;5.722;2023-02-22T08:24:21;8.10;99.90
13223;DHT22;6676;45.192;5.722;2023-02-22T08:27:12;8.30;99.90
13223;DHT22;6676;45.192;5.722;2023-02-22T08:30:04;8.30;99.90
13223;DHT22;6676;45.192;5.722;2023-02-22T08:32:56;8.40;99.90
13223;DHT22;6676;45.192;5.722;2023-02-22T08:35:48;8.50;99.90
13223;DHT22;6676;45.192;5.722;2023-02-22T08:41:18;8.60;99.90
13223;DHT22;6676;45.192;5.722;2023-02-22T08:46:48;8.70;99.90
13223;DHT22;6676;45.192;5.722;2023-02-22T08:49:40;8.70;99.90
13223;DHT22;6676;45.192;5.722;2023-02-22T08:52:32;8.80;99.90
13223;DHT22;6676;45.192;5.722;2023-02-22T08:55:30;8.90;99.90
13223;DHT22;6676;45.192;5.722;2023-02-22T08:58:21;8.80;99.90
13223;DHT22;6676;45.192;5.722;2023-02-22T09:01:13;8.90;99.90
13223;DHT22;6676;45.192;5.722;2023-02-22T09:06:44;8.90;99.90
13223;DHT22;6676;45.192;5.722;2023-02-22T09:09:38;8.90;99.90
13223;DHT22;6676;45.192;5.722;2023-02-22T09:12:30;8.80;99.90
13223;DHT22;6676;45.192;5.722;2023-02-22T09:15:23;8.80;99.90
13223;DHT22;6676;45.192;5.722;2023-02-22T09:18:15;8.70;99.90
13223;DHT22;6676;45.192;5.722;2023-02-22T09:21:07;8.70;99.90
13223;DHT22;6676;45.192;5.722;2023-02-22T09:26:39;8.90;99.90
13223;DHT22;6676;45.192;5.722;2023-02-22T09:29:31;9.00;99.90
13223;DHT22;6676;45.192;5.722;2023-02-22T09:32:22;9.00;99.90
13223;DHT22;6676;45.192;5.722;2023-02-22T09:35:16;8.90;99.90
13223;DHT22;6676;45.192;5.722;2023-02-22T09:38:08;8.90;99.90
13223;DHT22;6676;45.192;5.722;2023-02-22T09:43:48;9.10;99.90
13223;DHT22;6676;45.192;5.722;2023-02-22T09:46:40;9.40;99.90
13223;DHT22;6676;45.192;5.722;2023-02-22T09:52:17;9.40;99.90
13223;DHT22;6676;45.192;5.722;2023-02-22T09:55:15;9.40;99.90
13223;DHT22;6676;45.192;5.722;2023-02-22T09:58:06;9.40;99.90
13223;DHT22;6676;45.192;5.722;2023-02-22T10:03:41;9.30;99.90
13223;DHT22;6676;45.192;5.722;2023-02-22T10:06:33;9.40;99.90
13223;DHT22;6676;45.192;5.722;2023-02-22T10:09:27;9.50;99.90
13223;DHT22;6676;45.192;5.722;2023-02-22T10:12:28;9.60;99.90
13223;DHT22;6676;45.192;5.722;2023-02-22T10:15:32;9.60;99.90
13223;DHT22;6676;45.192;5.722;2023-02-22T10:21:16;9.70;99.90
13223;DHT22;6676;45.192;5.722;2023-02-22T10:24:12;9.90;99.90
13223;DHT22;6676;45.192;5.722;2023-02-22T10:27:07;9.90;99.90
13223;DHT22;6676;45.192;5.722;2023-02-22T10:30:03;9.90;99.90
13223;DHT22;6676;45.192;5.722;2023-02-22T10:32:58;9.90;99.90
13223;DHT22;6676;45.192;5.722;2023-02-22T10:35:52;9.90;99.90
13223;DHT22;6676;45.192;5.722;2023-02-22T10:38:47;10.00;99.90
13223;DHT22;6676;45.192;5.722;2023-02-22T10:44:21;10.00;99.90
13223;DHT22;6676;45.192;5.722;2023-02-22T10:47:14;10.10;99.90
13223;DHT22;6676;45.192;5.722;2023-02-22T10:50:12;10.00;99.90
13223;DHT22;6676;45.192;5.722;2023-02-22T10:53:04;9.80;99.90
13223;DHT22;6676;45.192;5.722;2023-02-22T10:56:15;9.70;99.90
13223;DHT22;6676;45.192;5.722;2023-02-22T11:01:47;9.90;99.90
13223;DHT22;6676;45.192;5.722;2023-02-22T11:04:47;9.80;99.90
13223;DHT22;6676;45.192;5.722;2023-02-22T11:07:39;9.80;99.90
13223;DHT22;6676;45.192;5.722;2023-02-22T11:10:31;9.80;99.90
13223;DHT22;6676;45.192;5.722;2023-02-22T11:13:26;9.80;99.90
13223;DHT22;6676;45.192;5.722;2023-02-22T11:16:19;9.90;99.90
13223;DHT22;6676;45.192;5.722;2023-02-22T11:19:22;10.00;99.90
13223;DHT22;6676;45.192;5.722;2023-02-22T11:22:22;10.10;99.90
13223;DHT22;6676;45.192;5.722;2023-02-22T11:28:09;10.10;99.90
13223;DHT22;6676;45.192;5.722;2023-02-22T11:31:13;10.10;99.90
13223;DHT22;6676;45.192;5.722;2023-02-22T11:34:06;10.20;99.90
13223;DHT22;6676;45.192;5.722;2023-02-22T11:37:14;10.20;99.90
13223;DHT22;6676;45.192;5.722;2023-02-22T11:40:14;10.20;99.90
13223;DHT22;6676;45.192;5.722;2023-02-22T11:43:13;10.20;99.90
13223;DHT22;6676;45.192;5.722;2023-02-22T11:46:05;10.20;99.90
13223;DHT22;6676;45.192;5.722;2023-02-22T11:49:01;10.30;99.90
13223;DHT22;6676;45.192;5.722;2023-02-22T11:52:06;10.30;99.90
13223;DHT22;6676;45.192;5.722;2023-02-22T11:55:06;10.40;99.90
13223;DHT22;6676;45.192;5.722;2023-02-22T12:00:49;10.70;99.90
13223;DHT22;6676;45.192;5.722;2023-02-22T12:04:25;10.80;99.90
13223;DHT22;6676;45.192;5.722;2023-02-22T12:07:27;10.90;99.90
13223;DHT22;6676;45.192;5.722;2023-02-22T12:10:25;11.00;99.90
13223;DHT22;6676;45.192;5.722;2023-02-22T12:13:28;10.80;99.90
13223;DHT22;6676;45.192;5.722;2023-02-22T12:16:26;10.70;99.90
13223;DHT22;6676;45.192;5.722;2023-02-22T12:19:20;10.80;99.90
13223;DHT22;6676;45.192;5.722;2023-02-22T12:22:16;10.70;99.90
13223;DHT22;6676;45.192;5.722;2023-02-22T12:25:15;10.70;99.90
13223;DHT22;6676;45.192;5.722;2023-02-22T12:28:09;10.80;99.90
13223;DHT22;6676;45.192;5.722;2023-02-22T12:31:13;10.90;99.90
13223;DHT22;6676;45.192;5.722;2023-02-22T12:34:07;11.10;99.90
13223;DHT22;6676;45.192;5.722;2023-02-22T12:37:03;11.30;99.90
13223;DHT22;6676;45.192;5.722;2023-02-22T12:40:00;11.40;99.90
13223;DHT22;6676;45.192;5.722;2023-02-22T12:45:47;11.40;99.90
13223;DHT22;6676;45.192;5.722;2023-02-22T12:48:44;11.40;99.90
13223;DHT22;6676;45.192;5.722;2023-02-22T12:51:39;11.40;99.90
13223;DHT22;6676;45.192;5.722;2023-02-22T12:54:38;11.50;99.90
13223;DHT22;6676;45.192;5.722;2023-02-22T12:57:35;11.60;99.90
13223;DHT22;6676;45.192;5.722;2023-02-22T13:00:31;11.70;99.90
13223;DHT22;6676;45.192;5.722;2023-02-22T13:03:30;11.90;99.90
13223;DHT22;6676;45.192;5.722;2023-02-22T13:06:30;12.00;99.90
13223;DHT22;6676;45.192;5.722;2023-02-22T13:09:35;12.20;99.90
13223;DHT22;6676;45.192;5.722;2023-02-22T13:12:30;12.10;99.90
13223;DHT22;6676;45.192;5.722;2023-02-22T13:15:24;12.00;99.90
13223;DHT22;6676;45.192;5.722;2023-02-22T13:18:19;12.10;99.90
13223;DHT22;6676;45.192;5.722;2023-02-22T13:23:54;12.20;99.90
13223;DHT22;6676;45.192;5.722;2023-02-22T13:26:49;12.20;99.90
13223;DHT22;6676;45.192;5.722;2023-02-22T13:29:43;12.00;99.90
13223;DHT22;6676;45.192;5.722;2023-02-22T13:32:45;12.00;99.90
13223;DHT22;6676;45.192;5.722;2023-02-22T13:35:49;12.00;99.90
13223;DHT22;6676;45.192;5.722;2023-02-22T13:42:16;12.00;99.90
13223;DHT22;6676;45.192;5.722;2023-02-22T13:45:36;12.20;99.90
13223;DHT22;6676;45.192;5.722;2023-02-22T13:48:39;12.30;99.90
13223;DHT22;6676;45.192;5.722;2023-02-22T13:51:41;12.40;99.90
13223;DHT22;6676;45.192;5.722;2023-02-22T13:54:38;12.50;99.90
13223;DHT22;6676;45.192;5.722;2023-02-22T13:57:32;12.60;99.90
13223;DHT22;6676;45.192;5.722;2023-02-22T14:03:36;12.80;99.90
13223;DHT22;6676;45.192;5.722;2023-02-22T14:06:37;12.80;99.90
13223;DHT22;6676;45.192;5.722;2023-02-22T14:09:45;12.90;99.90
13223;DHT22;6676;45.192;5.722;2023-02-22T14:12:49;12.90;99.90
13223;DHT22;6676;45.192;5.722;2023-02-22T14:16:19;13.00;99.90
13223;DHT22;6676;45.192;5.722;2023-02-22T14:19:17;13.00;99.90
13223;DHT22;6676;45.192;5.722;2023-02-22T14:22:12;13.00;99.90
13223;DHT22;6676;45.192;5.722;2023-02-22T14:25:04;13.00;99.90
13223;DHT22;6676;45.192;5.722;2023-02-22T14:27:58;12.90;99.90
13223;DHT22;6676;45.192;5.722;2023-02-22T14:31:02;12.90;99.90
13223;DHT22;6676;45.192;5.722;2023-02-22T14:33:56;12.90;99.90
13223;DHT22;6676;45.192;5.722;2023-02-22T14:39:37;12.90;99.90
13223;DHT22;6676;45.192;5.722;2023-02-22T14:42:32;12.80;99.90
13223;DHT22;6676;45.192;5.722;2023-02-22T14:45:26;12.60;99.90
13223;DHT22;6676;45.192;5.722;2023-02-22T14:48:23;12.60;99.90
13223;DHT22;6676;45.192;5.722;2023-02-22T14:51:18;12.60;99.90
13223;DHT22;6676;45.192;5.722;2023-02-22T14:54:14;12.60;99.90
13223;DHT22;6676;45.192;5.722;2023-02-22T14:57:08;12.70;99.90
13223;DHT22;6676;45.192;5.722;2023-02-22T15:03:24;12.80;99.90
13223;DHT22;6676;45.192;5.722;2023-02-22T15:06:16;12.90;99.90
13223;DHT22;6676;45.192;5.722;2023-02-22T15:09:12;13.00;99.90
13223;DHT22;6676;45.192;5.722;2023-02-22T15:12:15;13.20;99.90
13223;DHT22;6676;45.192;5.722;2023-02-22T15:15:15;13.40;99.90
13223;DHT22;6676;45.192;5.722;2023-02-22T15:18:16;13.40;99.90
13223;DHT22;6676;45.192;5.722;2023-02-22T15:21:09;13.50;99.90
13223;DHT22;6676;45.192;5.722;2023-02-22T15:24:05;13.40;99.90
13223;DHT22;6676;45.192;5.722;2023-02-22T15:29:43;13.30;99.90
13223;DHT22;6676;45.192;5.722;2023-02-22T15:32:37;13.50;99.90
13223;DHT22;6676;45.192;5.722;2023-02-22T15:35:31;13.40;99.90
13223;DHT22;6676;45.192;5.722;2023-02-22T15:38:28;13.20;99.90
13223;DHT22;6676;45.192;5.722;2023-02-22T15:41:27;13.10;99.90
13223;DHT22;6676;45.192;5.722;2023-02-22T15:44:18;13.00;99.90
13223;DHT22;6676;45.192;5.722;2023-02-22T15:47:15;12.90;99.90
13223;DHT22;6676;45.192;5.722;2023-02-22T15:50:20;12.70;99.90
13223;DHT22;6676;45.192;5.722;2023-02-22T15:53:24;12.70;99.90
13223;DHT22;6676;45.192;5.722;2023-02-22T15:56:25;12.60;99.90
13223;DHT22;6676;45.192;5.722;2023-02-22T15:59:13;12.50;99.90
13223;DHT22;6676;45.192;5.722;2023-02-22T16:02:14;12.50;99.90
13223;DHT22;6676;45.192;5.722;2023-02-22T16:05:03;12.50;99.90
13223;DHT22;6676;45.192;5.722;2023-02-22T16:07:55;12.40;99.90
13223;DHT22;6676;45.192;5.722;2023-02-22T16:10:51;12.40;99.90
13223;DHT22;6676;45.192;5.722;2023-02-22T16:13:51;12.30;99.90
13223;DHT22;6676;45.192;5.722;2023-02-22T16:16:42;12.30;99.90
13223;DHT22;6676;45.192;5.722;2023-02-22T16:19:37;12.30;99.90
13223;DHT22;6676;45.192;5.722;2023-02-22T16:22:32;12.30;99.90
13223;DHT22;6676;45.192;5.722;2023-02-22T16:25:29;12.30;99.90
13223;DHT22;6676;45.192;5.722;2023-02-22T16:28:27;12.30;99.90
13223;DHT22;6676;45.192;5.722;2023-02-22T16:31:24;12.20;99.90
13223;DHT22;6676;45.192;5.722;2023-02-22T16:34:16;12.20;99.90
13223;DHT22;6676;45.192;5.722;2023-02-22T16:37:20;12.20;99.90
13223;DHT22;6676;45.192;5.722;2023-02-22T16:40:18;12.10;99.90
13223;DHT22;6676;45.192;5.722;2023-02-22T16:43:13;12.10;99.90
13223;DHT22;6676;45.192;5.722;2023-02-22T16:46:07;12.10;99.90
13223;DHT22;6676;45.192;5.722;2023-02-22T16:51:43;12.00;99.90
13223;DHT22;6676;45.192;5.722;2023-02-22T16:54:38;12.00;99.90
13223;DHT22;6676;45.192;5.722;2023-02-22T17:00:15;11.90;99.90
13223;DHT22;6676;45.192;5.722;2023-02-22T17:03:12;11.90;99.90
13223;DHT22;6676;45.192;5.722;2023-02-22T17:06:03;11.90;99.90
13223;DHT22;6676;45.192;5.722;2023-02-22T17:08:54;11.80;99.90
13223;DHT22;6676;45.192;5.722;2023-02-22T17:11:48;11.80;99.90
13223;DHT22;6676;45.192;5.722;2023-02-22T17:14:40;11.80;99.90
13223;DHT22;6676;45.192;5.722;2023-02-22T17:17:33;11.70;99.90
13223;DHT22;6676;45.192;5.722;2023-02-22T17:20:25;11.70;99.90
13223;DHT22;6676;45.192;5.722;2023-02-22T17:23:20;11.70;99.90
13223;DHT22;6676;45.192;5.722;2023-02-22T17:26:12;11.60;99.90
13223;DHT22;6676;45.192;5.722;2023-02-22T17:29:04;11.60;99.90
13223;DHT22;6676;45.192;5.722;2023-02-22T17:31:55;11.60;99.90
13223;DHT22;6676;45.192;5.722;2023-02-22T17:34:48;11.60;99.90
13223;DHT22;6676;45.192;5.722;2023-02-22T17:37:39;11.60;99.90
13223;DHT22;6676;45.192;5.722;2023-02-22T17:40:30;11.60;99.90
13223;DHT22;6676;45.192;5.722;2023-02-22T17:43:22;11.50;99.90
13223;DHT22;6676;45.192;5.722;2023-02-22T17:46:14;11.40;99.90
13223;DHT22;6676;45.192;5.722;2023-02-22T17:49:06;11.40;99.90
13223;DHT22;6676;45.192;5.722;2023-02-22T17:51:58;11.40;99.90
13223;DHT22;6676;45.192;5.722;2023-02-22T17:54:51;11.40;99.90
13223;DHT22;6676;45.192;5.722;2023-02-22T17:57:42;11.40;99.90
13223;DHT22;6676;45.192;5.722;2023-02-22T18:00:36;11.30;99.90
13223;DHT22;6676;45.192;5.722;2023-02-22T18:03:28;11.40;99.90
13223;DHT22;6676;45.192;5.722;2023-02-22T18:06:20;11.30;99.90
13223;DHT22;6676;45.192;5.722;2023-02-22T18:09:14;11.40;99.90
13223;DHT22;6676;45.192;5.722;2023-02-22T18:12:06;11.30;99.90
13223;DHT22;6676;45.192;5.722;2023-02-22T18:14:58;11.30;99.90
13223;DHT22;6676;45.192;5.722;2023-02-22T18:17:50;11.40;99.90
13223;DHT22;6676;45.192;5.722;2023-02-22T18:20:43;11.30;99.90
13223;DHT22;6676;45.192;5.722;2023-02-22T18:23:35;11.40;99.90
13223;DHT22;6676;45.192;5.722;2023-02-22T18:26:26;11.40;99.90
13223;DHT22;6676;45.192;5.722;2023-02-22T18:29:18;11.40;99.90
13223;DHT22;6676;45.192;5.722;2023-02-22T18:32:10;11.30;99.90
13223;DHT22;6676;45.192;5.722;2023-02-22T18:35:05;11.40;99.90
13223;DHT22;6676;45.192;5.722;2023-02-22T18:37:56;11.30;99.90
13223;DHT22;6676;45.192;5.722;2023-02-22T18:40:47;11.30;99.90
13223;DHT22;6676;45.192;5.722;2023-02-22T18:46:20;11.30;99.90
13223;DHT22;6676;45.192;5.722;2023-02-22T18:49:12;11.30;99.90
13223;DHT22;6676;45.192;5.722;2023-02-22T18:52:04;11.20;99.90
13223;DHT22;6676;45.192;5.722;2023-02-22T18:54:55;11.20;99.90
13223;DHT22;6676;45.192;5.722;2023-02-22T18:57:46;11.30;99.90
13223;DHT22;6676;45.192;5.722;2023-02-22T19:00:42;11.30;99.90
13223;DHT22;6676;45.192;5.722;2023-02-22T19:03:34;11.30;99.90
13223;DHT22;6676;45.192;5.722;2023-02-22T19:06:28;11.30;99.90
13223;DHT22;6676;45.192;5.722;2023-02-22T19:09:20;11.30;99.90
13223;DHT22;6676;45.192;5.722;2023-02-22T19:12:11;11.30;99.90
13223;DHT22;6676;45.192;5.722;2023-02-22T19:15:05;11.20;99.90
13223;DHT22;6676;45.192;5.722;2023-02-22T19:17:57;11.10;99.90
13223;DHT22;6676;45.192;5.722;2023-02-22T19:20:56;11.10;99.90
13223;DHT22;6676;45.192;5.722;2023-02-22T19:23:47;11.00;99.90
13223;DHT22;6676;45.192;5.722;2023-02-22T19:26:39;11.00;99.90
13223;DHT22;6676;45.192;5.722;2023-02-22T19:35:15;11.00;99.90
13223;DHT22;6676;45.192;5.722;2023-02-22T19:38:08;11.00;99.90
13223;DHT22;6676;45.192;5.722;2023-02-22T19:41:07;11.00;99.90
13223;DHT22;6676;45.192;5.722;2023-02-22T19:44:01;11.00;99.90
13223;DHT22;6676;45.192;5.722;2023-02-22T19:46:53;11.00;99.90
13223;DHT22;6676;45.192;5.722;2023-02-22T19:52:35;11.00;99.90
13223;DHT22;6676;45.192;5.722;2023-02-22T19:58:06;10.90;99.90
13223;DHT22;6676;45.192;5.722;2023-02-22T20:00:58;10.90;99.90
13223;DHT22;6676;45.192;5.722;2023-02-22T20:03:50;10.80;99.90
13223;DHT22;6676;45.192;5.722;2023-02-22T20:09:37;10.80;99.90
13223;DHT22;6676;45.192;5.722;2023-02-22T20:12:29;10.80;99.90
13223;DHT22;6676;45.192;5.722;2023-02-22T20:15:21;10.70;99.90
13223;DHT22;6676;45.192;5.722;2023-02-22T20:18:13;10.60;99.90
13223;DHT22;6676;45.192;5.722;2023-02-22T20:21:08;10.60;99.90
13223;DHT22;6676;45.192;5.722;2023-02-22T20:24:04;10.60;99.90
13223;DHT22;6676;45.192;5.722;2023-02-22T20:26:53;10.70;99.90
13223;DHT22;6676;45.192;5.722;2023-02-22T20:29:47;10.70;99.90
13223;DHT22;6676;45.192;5.722;2023-02-22T20:48:27;10.40;99.90
13223;DHT22;6676;45.192;5.722;2023-02-22T20:51:18;10.40;99.90
13223;DHT22;6676;45.192;5.722;2023-02-22T20:54:12;10.40;99.90
13223;DHT22;6676;45.192;5.722;2023-02-22T20:59:47;10.30;99.90
13223;DHT22;6676;45.192;5.722;2023-02-22T21:02:38;10.30;99.90
13223;DHT22;6676;45.192;5.722;2023-02-22T21:05:30;10.30;99.90
13223;DHT22;6676;45.192;5.722;2023-02-22T21:08:22;10.20;99.90
13223;DHT22;6676;45.192;5.722;2023-02-22T21:11:17;10.30;99.90
13223;DHT22;6676;45.192;5.722;2023-02-22T21:14:10;10.30;99.90
13223;DHT22;6676;45.192;5.722;2023-02-22T21:17:03;10.30;99.90
13223;DHT22;6676;45.192;5.722;2023-02-22T21:19:57;10.30;99.90
13223;DHT22;6676;45.192;5.722;2023-02-22T21:25:31;10.20;99.90
13223;DHT22;6676;45.192;5.722;2023-02-22T21:28:22;10.30;99.90
13223;DHT22;6676;45.192;5.722;2023-02-22T21:31:15;10.30;99.90
13223;DHT22;6676;45.192;5.722;2023-02-22T21:34:11;10.30;99.90
13223;DHT22;6676;45.192;5.722;2023-02-22T21:37:05;10.30;99.90
13223;DHT22;6676;45.192;5.722;2023-02-22T21:39:57;10.30;99.90
13223;DHT22;6676;45.192;5.722;2023-02-22T21:42:49;10.20;99.90
13223;DHT22;6676;45.192;5.722;2023-02-22T21:48:22;10.20;99.90
13223;DHT22;6676;45.192;5.722;2023-02-22T21:51:17;10.30;99.90
13223;DHT22;6676;45.192;5.722;2023-02-22T21:54:10;10.30;99.90
13223;DHT22;6676;45.192;5.722;2023-02-22T21:57:02;10.20;99.90
13223;DHT22;6676;45.192;5.722;2023-02-22T21:59:55;10.30;99.90
13223;DHT22;6676;45.192;5.722;2023-02-22T22:02:48;10.30;99.90
13223;DHT22;6676;45.192;5.722;2023-02-22T22:05:42;10.30;99.90
13223;DHT22;6676;45.192;5.722;2023-02-22T22:08:35;10.30;99.90
13223;DHT22;6676;45.192;5.722;2023-02-22T22:11:28;10.30;99.90
13223;DHT22;6676;45.192;5.722;2023-02-22T22:14:21;10.30;99.90
13223;DHT22;6676;45.192;5.722;2023-02-22T22:17:13;10.10;99.90
13223;DHT22;6676;45.192;5.722;2023-02-22T22:20:07;10.10;99.90
13223;DHT22;6676;45.192;5.722;2023-02-22T22:22:59;10.10;99.90
13223;DHT22;6676;45.192;5.722;2023-02-22T22:25:58;10.20;99.90
13223;DHT22;6676;45.192;5.722;2023-02-22T22:28:45;10.10;99.90
13223;DHT22;6676;45.192;5.722;2023-02-22T22:31:37;10.20;99.90
13223;DHT22;6676;45.192;5.722;2023-02-22T22:37:13;10.20;99.90